Pagrindinis puslapis
METAR-TAF:

METAR-TAF

Oro uostai :

Cape Newenham, Aliaska, Jungtinės Amerikos Valstijos

platuma: 58-39N, ilguma: 162-04W, Aukštis: 165 m

Dabartinis oras

Ataskaita buvo paskelbta 27 minutes, ne 08:19 UTC
Vėjas 15 kt iš Šiaurės/Šiaurės Vakarų, svyruoja nuo Šiaurės Vakarų ir Šiaurės/Šiaurės Rytų
Temperatūra 12°C
Drėgmė 82%
Slėgis 1007 hPa
Matomumas: 16.1 km
Apsiniaukę ne aukštis 800 ft

METAR: PAEH 160819Z AUTO 34015KT 310V030 10SM OVC008 12/09 A2974 RMK AO2 SLP073

Laikas: 00:46 (08:46 UTC)


TAF: trūkstamas

Orai ataskaitas ir orų prognozės (METAR, TAF).

turimą stotys yra geltonos ir raudonos taškus žemėlapyje.

Perkelti pele per norėdami pamatyti stoties vardą.

Tada spustelėkite, norėdami matyti oro stebėjimo ir prognozės.

Norėdami pakeisti žemėlapį: spustelėkite ant žalios mygtukų su juodo kryžiaus žemyn,; žalią mygtuką su brūkšneliu, jei norite nutolinti; arba žalių rodyklių gretimoms žemėlapius.


METAR-TAF: